KBL weather

Hamid Karzai International Airport
Kabul, Kabul Province, Afghanistan

Public forecast

Using degrees Celsius for public forecast. Weather courtesy of forecast.io.

Current aviation weather report (METAR) for Hamid Karzai International Airport

Retrieved 2019/12/11 10:50 UTC (11 minutes ago):

OAKB 111050Z 12009KT 9999 FEW080 BKN150 09/M01 Q1016 NOSIG RMK A3003 BLU BLU

Aviation forecast (TAF) for Hamid Karzai International Airport

Retrieved 2019/12/11 06:05 UTC (5 hours ago):

TAF OAKB 110505Z 1106/1206 VRB02KT 9999 SCT080 BECMG 1113/1115 4000 FU SCT060 BKN120 TEMPO 1116/1120 1500 FU BECMG 1122/1123 3000 -RA BR BKN020 OVC040